Time;durP1;ratioP1;P1;durP2;ratioP2;P2;SDS_P1;SDS_P2;PMS_P1;PMS_P2;Temp;Humidity;BMP_temperature;BMP_pressure;BME280_temperature;BME280_humidity;BME280_pressure;Samples;Min_cycle;Max_cycle;Signal;HPM_P1;HPM_P2
2020/12/29 00:03:14;;;;;;;3.08;1.98;;;15.30;66.00;;;;;;10501523;28;20115;-59
2020/12/29 00:08:15;;;;;;;2.53;1.75;;;15.30;66.00;;;;;;10501543;28;20064;-59
2020/12/29 00:13:16;;;;;;;2.55;1.65;;;15.30;66.10;;;;;;10502487;28;20382;-59
2020/12/29 00:18:17;;;;;;;1.75;1.10;;;15.20;66.10;;;;;;10502325;28;20032;-59
2020/12/29 00:23:17;;;;;;;3.45;1.65;;;15.20;66.20;;;;;;10502129;28;20067;-59
2020/12/29 00:28:18;;;;;;;2.13;1.17;;;15.20;66.20;;;;;;10501950;28;20096;-59
2020/12/29 00:33:19;;;;;;;2.80;1.30;;;15.20;66.20;;;;;;10501687;28;20033;-58
2020/12/29 00:38:19;;;;;;;2.53;1.50;;;15.10;66.20;;;;;;10501851;28;20482;-59
2020/12/29 00:43:20;;;;;;;3.67;1.25;;;15.20;66.20;;;;;;10501358;28;20035;-59
2020/12/29 00:48:21;;;;;;;1.95;1.35;;;15.10;66.20;;;;;;10501267;28;20017;-59
2020/12/29 00:53:22;;;;;;;2.83;1.40;;;15.10;66.20;;;;;;10501186;28;20044;-59
2020/12/29 00:58:22;;;;;;;2.42;1.17;;;15.10;66.20;;;;;;10501126;28;20099;-59
2020/12/29 01:03:24;;;;;;;2.85;1.40;;;15.10;66.20;;;;;;10500718;28;20235;-59
2020/12/29 01:08:25;;;;;;;2.60;1.40;;;15.10;66.30;;;;;;10491901;28;20036;-58
2020/12/29 01:13:26;;;;;;;2.17;1.42;;;15.00;66.10;;;;;;10500179;28;20551;-59
2020/12/29 01:18:27;;;;;;;1.98;1.30;;;15.00;66.20;;;;;;10500039;28;20036;-59
2020/12/29 01:23:28;;;;;;;2.90;1.70;;;15.00;66.30;;;;;;10500004;28;20040;-59
2020/12/29 01:28:29;;;;;;;2.72;1.20;;;15.00;66.30;;;;;;10495591;28;20043;-60
2020/12/29 01:33:29;;;;;;;2.40;1.55;;;15.00;66.40;;;;;;10499222;28;20039;-59
2020/12/29 01:38:30;;;;;;;3.30;1.73;;;15.00;66.40;;;;;;10498953;28;20036;-59
2020/12/29 01:43:31;;;;;;;2.33;1.50;;;14.90;66.40;;;;;;10498816;28;20068;-59
2020/12/29 01:48:31;;;;;;;1.70;1.10;;;14.90;66.40;;;;;;10497876;28;20021;-59
2020/12/29 01:53:32;;;;;;;1.40;1.17;;;14.90;66.50;;;;;;10498642;28;20024;-59
2020/12/29 01:58:38;;;;;;;2.53;1.50;;;14.90;66.40;;;;;;10498448;28;20122;-59
2020/12/29 02:03:41;;;;;;;1.85;1.10;;;14.90;66.50;;;;;;10497987;28;20473;-59
2020/12/29 02:08:43;;;;;;;2.65;1.42;;;14.90;66.50;;;;;;10494675;28;20128;-59
2020/12/29 02:13:43;;;;;;;1.77;1.15;;;14.90;66.50;;;;;;10493057;28;20420;-60
2020/12/29 02:18:44;;;;;;;3.65;1.80;;;14.80;66.50;;;;;;10479899;28;20028;-59
2020/12/29 02:23:45;;;;;;;3.63;1.30;;;14.80;67.10;;;;;;10497371;28;20120;-59
2020/12/29 02:28:46;;;;;;;2.75;1.30;;;14.80;66.50;;;;;;10497555;28;20024;-59
2020/12/29 02:33:46;;;;;;;1.77;1.27;;;14.80;66.50;;;;;;10497031;28;20090;-59
2020/12/29 02:38:47;;;;;;;3.90;1.73;;;14.80;66.50;;;;;;10497055;28;20035;-59
2020/12/29 02:43:48;;;;;;;1.95;1.20;;;14.80;66.60;;;;;;10496685;28;20040;-58
2020/12/29 02:48:48;;;;;;;2.03;1.10;;;14.80;66.60;;;;;;10496741;28;20020;-59
2020/12/29 02:53:49;;;;;;;1.98;1.30;;;14.70;66.60;;;;;;10496774;28;20143;-59
2020/12/29 02:58:50;;;;;;;1.85;1.13;;;14.70;66.50;;;;;;10489364;28;20021;-59
2020/12/29 03:03:50;;;;;;;1.88;1.20;;;14.70;66.60;;;;;;10496607;28;20099;-59
2020/12/29 03:08:51;;;;;;;1.73;1.20;;;14.70;66.60;;;;;;10496324;28;20093;-59
2020/12/29 03:13:54;;;;;;;3.83;1.45;;;14.70;66.60;;;;;;10496152;28;20400;-59
2020/12/29 03:18:55;;;;;;;1.75;1.20;;;14.70;66.70;;;;;;10496268;28;20028;-61
2020/12/29 03:23:57;;;;;;;1.67;1.00;;;14.70;66.70;;;;;;10496304;28;20068;-59
2020/12/29 03:28:59;;;;;;;2.13;1.48;;;14.70;66.70;;;;;;10494901;28;20036;-59
2020/12/29 03:34:00;;;;;;;1.85;1.30;;;14.70;66.70;;;;;;10495195;28;20032;-59
2020/12/29 03:39:01;;;;;;;2.15;1.25;;;14.60;66.60;;;;;;10496031;28;20481;-58
2020/12/29 03:44:02;;;;;;;2.00;1.17;;;14.70;66.70;;;;;;10495672;28;20414;-59
2020/12/29 03:49:03;;;;;;;2.85;1.30;;;14.60;66.70;;;;;;10495798;28;20032;-59
2020/12/29 03:54:04;;;;;;;1.80;1.10;;;14.60;66.70;;;;;;10495674;28;20039;-58
2020/12/29 03:59:05;;;;;;;2.30;1.52;;;14.60;66.70;;;;;;10495346;28;20107;-59
2020/12/29 04:04:05;;;;;;;1.63;1.02;;;14.60;66.70;;;;;;10494177;28;20415;-59
2020/12/29 04:09:06;;;;;;;1.23;0.93;;;14.60;66.70;;;;;;10495628;28;20144;-59
2020/12/29 04:14:07;;;;;;;3.03;1.40;;;14.50;66.70;;;;;;10502417;28;20082;-59
2020/12/29 04:19:07;;;;;;;1.95;1.33;;;14.50;66.70;;;;;;10502472;28;20499;-59
2020/12/29 04:24:08;;;;;;;1.85;1.10;;;14.60;66.70;;;;;;10502289;28;20028;-59
2020/12/29 04:29:09;;;;;;;2.15;1.23;;;14.50;66.70;;;;;;10500957;28;20033;-60
2020/12/29 04:34:09;;;;;;;1.95;1.20;;;14.50;66.70;;;;;;10491608;28;20583;-59
2020/12/29 04:39:10;;;;;;;1.67;1.40;;;14.50;66.80;;;;;;10502020;28;20441;-59
2020/12/29 04:44:11;;;;;;;1.35;0.93;;;14.50;66.70;;;;;;10501504;28;20090;-59
2020/12/29 04:49:12;;;;;;;2.05;1.20;;;14.50;66.80;;;;;;10493901;28;20098;-59
2020/12/29 04:54:17;;;;;;;1.70;1.10;;;14.50;66.80;;;;;;10500350;28;20043;-59
2020/12/29 04:59:18;;;;;;;2.20;1.08;;;14.40;66.70;;;;;;10499376;28;20111;-58
2020/12/29 05:04:20;;;;;;;3.72;1.52;;;14.40;66.70;;;;;;10499283;28;20023;-59
2020/12/29 05:09:25;;;;;;;2.63;1.63;;;14.40;66.70;;;;;;10500373;28;20538;-59
2020/12/29 05:14:29;;;;;;;3.00;1.02;;;14.40;66.80;;;;;;10489372;28;20045;-59
2020/12/29 05:19:33;;;;;;;2.22;1.42;;;14.40;66.80;;;;;;10499763;28;20025;-59
2020/12/29 05:24:34;;;;;;;1.58;1.10;;;14.40;66.90;;;;;;10499208;28;20090;-59
2020/12/29 05:29:35;;;;;;;2.35;1.20;;;14.50;66.90;;;;;;10499873;28;20032;-59
2020/12/29 05:34:35;;;;;;;2.42;1.40;;;14.60;66.70;;;;;;10492223;28;20097;-59
2020/12/29 05:39:36;;;;;;;1.95;1.40;;;14.80;66.30;;;;;;10499252;28;20536;-58
2020/12/29 05:44:38;;;;;;;1.77;1.20;;;15.00;65.90;;;;;;10498928;28;20107;-58
2020/12/29 05:49:41;;;;;;;1.38;0.80;;;15.20;65.50;;;;;;10486582;28;20029;-59
2020/12/29 05:54:43;;;;;;;2.13;1.15;;;15.40;65.10;;;;;;10466293;28;20040;-59
2020/12/29 05:59:45;;;;;;;1.38;1.13;;;15.50;64.80;;;;;;10480608;28;20033;-58
2020/12/29 06:04:48;;;;;;;2.22;1.13;;;15.60;65.20;;;;;;10497851;28;20071;-58
2020/12/29 06:09:50;;;;;;;3.42;1.10;;;15.70;65.60;;;;;;10487274;28;20584;-58
2020/12/29 06:14:57;;;;;;;3.75;1.58;;;15.80;65.70;;;;;;10487020;28;20066;-58
2020/12/29 06:20:05;;;;;;;2.45;1.15;;;15.90;65.50;;;;;;10495465;28;20113;-57
2020/12/29 06:25:09;;;;;;;6.72;1.95;;;16.10;65.20;;;;;;10494911;28;20029;-58
2020/12/29 06:30:10;;;;;;;3.90;1.20;;;16.20;65.30;;;;;;10492542;28;20024;-58
2020/12/29 06:35:11;;;;;;;3.53;1.33;;;16.30;65.30;;;;;;10494832;28;20024;-59
2020/12/29 06:40:12;;;;;;;4.32;1.45;;;16.40;64.80;;;;;;10496721;28;20035;-59
2020/12/29 06:45:13;;;;;;;6.43;1.75;;;16.50;64.70;;;;;;10494087;28;20538;-58
2020/12/29 06:50:26;;;;;;;5.78;1.85;;;16.60;64.60;;;;;;10481927;28;20033;-59
2020/12/29 06:55:38;;;;;;;5.30;1.83;;;16.60;64.60;;;;;;10462285;28;20052;-59
2020/12/29 07:00:38;;;;;;;9.07;1.73;;;16.70;64.50;;;;;;10486209;28;20036;-60
2020/12/29 07:05:39;;;;;;;5.05;1.52;;;16.60;64.50;;;;;;10471034;28;20445;-58
2020/12/29 07:10:47;;;;;;;5.47;1.38;;;16.60;64.70;;;;;;10495935;28;20059;-59
2020/12/29 07:15:55;;;;;;;3.97;1.30;;;16.60;64.70;;;;;;10382076;28;20044;-58
2020/12/29 07:20:58;;;;;;;3.70;1.20;;;16.60;64.40;;;;;;10381010;28;20033;-58
2020/12/29 07:25:59;;;;;;;4.53;1.20;;;16.60;64.30;;;;;;10399379;28;20059;-59
2020/12/29 07:31:00;;;;;;;3.10;1.17;;;16.70;64.00;;;;;;10388226;28;20041;-59
2020/12/29 07:36:02;;;;;;;6.70;1.67;;;16.70;64.00;;;;;;10386721;28;20401;-61
2020/12/29 07:41:03;;;;;;;2.78;1.20;;;16.70;63.70;;;;;;10401451;28;20268;-59
2020/12/29 07:46:04;;;;;;;4.00;1.70;;;16.70;63.80;;;;;;10400775;28;20061;-61
2020/12/29 07:51:06;;;;;;;7.72;1.90;;;16.70;63.60;;;;;;10410586;28;20048;-59
2020/12/29 07:56:08;;;;;;;4.90;1.42;;;16.70;63.70;;;;;;10401008;28;20029;-60
2020/12/29 08:01:09;;;;;;;6.85;2.08;;;16.70;63.80;;;;;;10390068;28;20121;-59
2020/12/29 08:06:14;;;;;;;4.35;1.40;;;16.70;63.90;;;;;;10414559;28;20100;-60
2020/12/29 08:11:21;;;;;;;4.43;1.42;;;16.80;63.90;;;;;;10423626;28;20045;-60
2020/12/29 08:16:22;;;;;;;6.32;1.98;;;16.70;64.00;;;;;;10493129;28;20035;-59
2020/12/29 08:21:23;;;;;;;4.78;1.52;;;16.70;64.10;;;;;;10470761;28;20025;-58
2020/12/29 08:26:23;;;;;;;3.80;1.27;;;16.70;64.00;;;;;;10477310;28;20029;-60
2020/12/29 08:31:28;;;;;;;9.20;2.13;;;16.70;64.10;;;;;;10502313;28;20051;-58
2020/12/29 08:36:29;;;;;;;6.93;2.30;;;16.80;65.80;;;;;;10500091;28;20047;-59
2020/12/29 08:41:39;;;;;;;4.75;1.77;;;16.80;66.80;;;;;;10501547;28;20024;-59
2020/12/29 08:46:39;;;;;;;;;;;16.80;67.30;;;;;;10500640;28;20028;-59
2020/12/29 08:51:43;;;;;;;6.72;1.90;;;16.70;68.00;;;;;;10495893;28;19957;-59
2020/12/29 08:56:44;;;;;;;4.63;1.52;;;16.70;68.00;;;;;;10496177;28;20107;-59
2020/12/29 09:01:48;;;;;;;8.05;1.80;;;16.70;66.50;;;;;;10498165;28;20059;-58
2020/12/29 09:07:01;;;;;;;8.15;2.15;;;16.70;66.10;;;;;;10497599;28;20032;-59
2020/12/29 09:12:14;;;;;;;4.35;2.20;;;16.60;65.80;;;;;;10496812;28;20044;-59
2020/12/29 09:17:16;;;;;;;4.80;2.03;;;16.60;65.60;;;;;;10499099;28;20036;-59
2020/12/29 09:22:17;;;;;;;7.32;1.70;;;16.60;65.30;;;;;;10498892;28;20029;-59
2020/12/29 09:27:33;;;;;;;10.68;2.40;;;16.60;65.60;;;;;;10499660;28;20058;-62
2020/12/29 09:32:35;;;;;;;3.90;1.48;;;16.70;65.50;;;;;;10487435;28;20136;-60
2020/12/29 09:37:35;;;;;;;6.68;1.60;;;16.80;65.40;;;;;;10499287;28;20029;-60
2020/12/29 09:42:36;;;;;;;10.70;1.70;;;16.80;65.30;;;;;;10498972;28;20024;-60
2020/12/29 09:47:37;;;;;;;5.72;1.98;;;16.80;66.10;;;;;;10497703;28;20051;-60
2020/12/29 09:52:38;;;;;;;8.07;1.98;;;16.80;66.60;;;;;;10497109;28;20037;-59
2020/12/29 09:57:39;;;;;;;3.65;1.55;;;16.80;66.60;;;;;;10498210;28;20024;-59
2020/12/29 10:02:40;;;;;;;9.93;2.58;;;16.80;66.70;;;;;;10496336;28;20362;-61
2020/12/29 10:07:44;;;;;;;6.55;2.03;;;16.70;66.10;;;;;;10484539;28;20028;-57
2020/12/29 10:12:45;;;;;;;5.55;2.25;;;16.80;65.70;;;;;;10475721;28;20080;-58
2020/12/29 10:17:46;;;;;;;3.53;1.90;;;16.70;65.50;;;;;;10469148;28;20044;-57
2020/12/29 10:22:47;;;;;;;4.65;1.30;;;16.70;65.30;;;;;;10489869;28;20040;-57
2020/12/29 10:27:48;;;;;;;7.15;1.58;;;16.70;65.00;;;;;;10497624;28;20016;-57
2020/12/29 10:32:49;;;;;;;5.28;1.85;;;16.70;65.00;;;;;;10473317;28;20032;-57
2020/12/29 10:37:50;;;;;;;3.70;1.45;;;16.70;65.00;;;;;;10497059;28;20032;-57
2020/12/29 10:42:51;;;;;;;3.47;1.38;;;16.70;64.80;;;;;;10496775;28;20031;-58
2020/12/29 10:47:52;;;;;;;3.88;1.58;;;16.70;64.80;;;;;;10496833;28;20028;-57
2020/12/29 10:52:53;;;;;;;4.28;1.38;;;16.70;64.70;;;;;;10496971;28;20029;-57
2020/12/29 10:57:54;;;;;;;4.97;1.63;;;16.60;64.60;;;;;;10499541;28;20115;-57
2020/12/29 11:02:54;;;;;;;4.32;2.30;;;16.70;64.60;;;;;;10496904;28;20032;-57
2020/12/29 11:07:55;;;;;;;2.97;1.60;;;16.70;64.50;;;;;;10496425;28;20028;-58
2020/12/29 11:12:56;;;;;;;5.00;1.92;;;16.70;64.40;;;;;;10496074;28;20118;-57
2020/12/29 11:17:57;;;;;;;4.30;1.60;;;16.70;64.40;;;;;;10497785;28;20109;-58
2020/12/29 11:22:58;;;;;;;3.95;2.03;;;16.60;64.40;;;;;;10486638;28;20357;-57
2020/12/29 11:27:59;;;;;;;3.40;1.63;;;16.70;64.30;;;;;;10504581;28;20012;-58
2020/12/29 11:32:59;;;;;;;3.50;1.40;;;16.70;64.20;;;;;;10503978;28;20039;-59
2020/12/29 11:38:00;;;;;;;3.67;1.63;;;16.70;65.10;;;;;;10503069;28;20432;-57
2020/12/29 11:43:01;;;;;;;3.80;1.60;;;16.70;65.60;;;;;;10503220;28;20044;-57
2020/12/29 11:48:03;;;;;;;4.45;1.38;;;16.70;66.30;;;;;;10503280;28;20021;-58
2020/12/29 11:53:04;;;;;;;4.85;1.58;;;16.70;66.40;;;;;;10503451;28;20115;-56
2020/12/29 11:58:04;;;;;;;5.78;1.52;;;16.70;66.40;;;;;;10503044;28;20020;-57
2020/12/29 12:03:05;;;;;;;5.10;1.30;;;16.70;67.10;;;;;;10478723;28;20431;-58
2020/12/29 12:08:06;;;;;;;8.40;1.88;;;16.80;66.60;;;;;;10492857;28;20028;-58
2020/12/29 12:13:07;;;;;;;6.88;1.77;;;16.80;66.70;;;;;;10502461;28;20401;-59
2020/12/29 12:18:08;;;;;;;5.95;2.25;;;16.70;67.10;;;;;;10499312;28;20043;-58
2020/12/29 12:23:09;;;;;;;5.25;1.40;;;16.80;67.60;;;;;;10495527;28;20032;-57
2020/12/29 12:28:10;;;;;;;4.63;1.73;;;16.80;67.50;;;;;;10480238;28;20036;-58
2020/12/29 12:33:10;;;;;;;5.85;1.80;;;16.80;67.40;;;;;;10483033;28;20362;-59
2020/12/29 12:38:11;;;;;;;4.45;1.90;;;16.80;67.00;;;;;;10501705;28;20029;-56
2020/12/29 12:43:12;;;;;;;2.78;1.98;;;16.80;66.50;;;;;;10471217;28;20028;-57
2020/12/29 12:48:13;;;;;;;4.50;2.13;;;16.70;66.40;;;;;;10475312;28;20158;-58
2020/12/29 12:53:14;;;;;;;12.40;2.70;;;16.70;67.00;;;;;;10488606;28;20119;-58
2020/12/29 12:58:15;;;;;;;10.00;5.15;;;16.70;67.30;;;;;;10478842;28;20024;-57
2020/12/29 13:03:16;;;;;;;10.88;6.57;;;16.60;66.60;;;;;;10482381;28;20123;-57
2020/12/29 13:08:17;;;;;;;8.93;5.13;;;16.40;66.50;;;;;;10499540;28;20021;-58
2020/12/29 13:13:18;;;;;;;6.35;4.82;;;16.40;65.80;;;;;;10499543;28;20045;-58
2020/12/29 13:18:18;;;;;;;11.75;4.57;;;16.50;65.40;;;;;;10499105;28;20104;-58
2020/12/29 13:23:19;;;;;;;10.48;5.05;;;16.40;64.60;;;;;;10462310;28;20032;-59
2020/12/29 13:28:20;;;;;;;5.22;3.50;;;16.50;64.10;;;;;;10493248;28;20020;-58
2020/12/29 13:33:21;;;;;;;5.00;3.42;;;16.60;64.60;;;;;;10498821;28;20043;-58
2020/12/29 13:38:22;;;;;;;5.95;3.33;;;16.70;64.50;;;;;;10498071;28;20029;-59
2020/12/29 13:43:23;;;;;;;7.13;3.55;;;16.70;64.70;;;;;;10497956;28;20052;-58
2020/12/29 13:48:25;;;;;;;7.03;3.83;;;16.70;64.70;;;;;;10498456;28;20531;-56
2020/12/29 13:53:25;;;;;;;6.15;2.92;;;16.70;65.60;;;;;;10498593;28;20030;-58
2020/12/29 13:58:26;;;;;;;5.20;3.67;;;16.60;65.60;;;;;;10497895;28;20044;-58
2020/12/29 14:03:27;;;;;;;6.18;3.17;;;16.60;65.00;;;;;;10497304;28;20035;-58
2020/12/29 14:08:28;;;;;;;6.30;3.28;;;16.60;64.90;;;;;;10494843;28;20017;-58
2020/12/29 14:13:29;;;;;;;6.43;3.30;;;16.60;65.00;;;;;;10495120;28;20443;-59
2020/12/29 14:18:29;;;;;;;4.22;2.60;;;16.70;65.10;;;;;;10495566;28;20051;-58
2020/12/29 14:23:30;;;;;;;8.43;3.03;;;16.70;65.20;;;;;;10494642;28;20591;-58
2020/12/29 14:28:31;;;;;;;4.10;2.70;;;16.70;65.20;;;;;;10494987;28;20028;-58
2020/12/29 14:33:32;;;;;;;5.18;2.67;;;16.70;65.30;;;;;;10495917;28;20530;-58
2020/12/29 14:38:35;;;;;;;5.13;3.47;;;16.60;65.30;;;;;;10497236;28;20450;-58
2020/12/29 14:43:36;;;;;;;4.97;2.53;;;16.60;65.40;;;;;;10497142;28;20380;-58
2020/12/29 14:48:38;;;;;;;4.47;2.70;;;16.70;65.50;;;;;;10495461;28;20104;-58
2020/12/29 14:53:39;;;;;;;4.03;2.28;;;16.70;65.40;;;;;;10505422;28;20037;-58
2020/12/29 14:58:40;;;;;;;4.18;2.55;;;16.70;65.50;;;;;;10496878;28;20024;-58
2020/12/29 15:03:41;;;;;;;4.18;2.67;;;16.70;65.50;;;;;;10496605;28;20025;-58
2020/12/29 15:08:42;;;;;;;3.63;2.33;;;16.70;65.50;;;;;;10496777;28;20021;-58
2020/12/29 15:13:43;;;;;;;7.63;3.17;;;16.60;65.60;;;;;;10496238;28;20452;-58
2020/12/29 15:18:44;;;;;;;4.25;2.45;;;16.60;65.60;;;;;;10496531;28;20040;-58
2020/12/29 15:23:46;;;;;;;5.15;2.15;;;16.70;65.60;;;;;;10495549;28;20036;-58
2020/12/29 15:28:47;;;;;;;4.80;2.00;;;16.70;65.60;;;;;;10495857;28;20143;-58
2020/12/29 15:33:48;;;;;;;3.58;2.03;;;16.70;65.60;;;;;;10495311;28;20043;-58
2020/12/29 15:38:49;;;;;;;4.90;1.90;;;16.70;65.50;;;;;;10467585;28;20056;-58
2020/12/29 15:43:51;;;;;;;3.25;1.73;;;16.60;65.50;;;;;;10492310;28;20548;-58
2020/12/29 15:48:51;;;;;;;3.80;2.00;;;16.70;65.50;;;;;;10476885;28;20025;-58
2020/12/29 15:53:53;;;;;;;3.38;2.00;;;16.60;65.50;;;;;;10464867;28;20111;-58
2020/12/29 15:58:54;;;;;;;3.90;1.75;;;16.70;65.60;;;;;;10494446;28;20051;-58
2020/12/29 16:03:55;;;;;;;5.78;2.20;;;16.60;65.60;;;;;;10494365;28;20570;-58
2020/12/29 16:08:56;;;;;;;10.60;1.90;;;16.70;65.80;;;;;;10498592;28;20059;-58
2020/12/29 16:13:59;;;;;;;10.07;2.10;;;16.80;66.10;;;;;;10483088;28;20067;-57
2020/12/29 16:19:00;;;;;;;3.58;1.88;;;17.00;65.90;;;;;;10479680;28;20033;-56
2020/12/29 16:24:01;;;;;;;7.60;2.05;;;17.00;65.60;;;;;;10485797;28;20025;-60
2020/12/29 16:29:03;;;;;;;7.63;1.90;;;17.20;65.80;;;;;;10492063;28;20032;-57
2020/12/29 16:34:05;;;;;;;20.98;3.58;;;17.30;65.80;;;;;;10517271;28;20115;-57
2020/12/29 16:39:11;;;;;;;9.45;2.60;;;17.40;66.10;;;;;;10498084;28;20504;-59
2020/12/29 16:44:12;;;;;;;12.70;3.92;;;17.40;65.70;;;;;;10477686;28;20070;-58
2020/12/29 16:49:13;;;;;;;12.38;5.45;;;17.60;66.00;;;;;;10502698;28;20457;-58
2020/12/29 16:54:14;;;;;;;12.75;5.82;;;17.80;65.70;;;;;;10485912;28;20113;-57
2020/12/29 16:59:15;;;;;;;14.25;6.00;;;17.90;64.50;;;;;;10500762;28;20435;-58
2020/12/29 17:04:17;;;;;;;13.57;5.85;;;17.80;63.30;;;;;;10500555;28;20103;-60
2020/12/29 17:09:17;;;;;;;9.63;5.18;;;17.80;62.70;;;;;;10486703;28;20119;-60
2020/12/29 17:14:19;;;;;;;15.50;5.38;;;17.80;62.40;;;;;;10499494;28;20075;-60
2020/12/29 17:19:20;;;;;;;9.05;4.18;;;17.90;65.30;;;;;;10500285;28;20052;-62
2020/12/29 17:24:21;;;;;;;8.70;4.20;;;18.00;65.40;;;;;;10499837;28;20392;-61
2020/12/29 17:29:22;;;;;;;12.20;3.95;;;18.00;65.40;;;;;;10499815;28;20056;-60
2020/12/29 17:34:23;;;;;;;8.85;3.63;;;18.10;65.10;;;;;;10499817;28;20447;-62
2020/12/29 17:39:28;;;;;;;7.63;3.78;;;18.10;65.40;;;;;;10499579;28;20100;-61
2020/12/29 17:44:29;;;;;;;8.23;3.33;;;18.20;65.40;;;;;;10499364;28;20115;-60
2020/12/29 17:49:30;;;;;;;11.82;4.13;;;18.20;64.80;;;;;;10499282;28;20415;-60
2020/12/29 17:54:30;;;;;;;11.50;3.80;;;18.30;63.70;;;;;;10474591;28;20508;-60
2020/12/29 17:59:32;;;;;;;7.78;3.33;;;18.30;62.70;;;;;;10473719;28;20127;-61
2020/12/29 18:04:33;;;;;;;13.05;4.47;;;18.30;61.80;;;;;;10458980;28;20036;-60
2020/12/29 18:09:34;;;;;;;13.80;4.50;;;18.30;61.10;;;;;;10496957;28;20399;-59
2020/12/29 18:14:35;;;;;;;9.80;4.72;;;18.40;60.00;;;;;;10496609;28;20048;-59
2020/12/29 18:19:37;;;;;;;7.22;4.20;;;18.30;59.70;;;;;;10493170;28;20044;-60
2020/12/29 18:24:38;;;;;;;9.85;5.07;;;18.30;59.60;;;;;;10497400;28;20081;-61
2020/12/29 18:29:39;;;;;;;7.60;4.70;;;18.30;59.10;;;;;;10473719;28;20025;-60
2020/12/29 18:34:40;;;;;;;10.35;4.20;;;18.30;59.00;;;;;;10462019;28;20078;-61
2020/12/29 18:39:41;;;;;;;6.47;4.35;;;18.30;58.60;;;;;;10478428;28;20056;-61
2020/12/29 18:44:43;;;;;;;5.70;4.45;;;18.30;58.30;;;;;;10460866;28;20061;-59
2020/12/29 18:49:44;;;;;;;13.93;4.85;;;18.40;58.00;;;;;;10460897;28;20021;-59
2020/12/29 18:54:45;;;;;;;8.13;4.60;;;18.40;57.90;;;;;;10458218;28;20029;-60
2020/12/29 18:59:46;;;;;;;8.90;5.20;;;18.40;57.40;;;;;;10457990;28;20091;-61
2020/12/29 19:04:46;;;;;;;9.80;6.03;;;18.40;57.10;;;;;;10473403;28;20021;-60
2020/12/29 19:09:47;;;;;;;10.15;5.15;;;18.50;56.90;;;;;;10474306;28;20052;-59
2020/12/29 19:14:49;;;;;;;10.20;5.55;;;18.50;56.80;;;;;;10458488;28;20525;-58
2020/12/29 19:19:50;;;;;;;9.32;5.00;;;18.50;56.20;;;;;;10458017;28;20028;-59
2020/12/29 19:24:52;;;;;;;9.10;4.85;;;18.50;55.80;;;;;;10475075;28;20435;-59
2020/12/29 19:29:52;;;;;;;8.77;5.50;;;18.50;55.40;;;;;;10496172;28;20016;-60
2020/12/29 19:34:53;;;;;;;14.50;6.20;;;18.60;55.20;;;;;;10495861;28;20460;-60
2020/12/29 19:39:54;;;;;;;10.65;5.35;;;18.60;55.00;;;;;;10496818;28;20013;-60
2020/12/29 19:44:54;;;;;;;7.97;4.70;;;18.60;55.40;;;;;;10503422;28;20488;-61
2020/12/29 19:49:55;;;;;;;8.13;4.28;;;18.60;55.20;;;;;;10502273;28;20013;-60
2020/12/29 19:54:56;;;;;;;8.43;6.18;;;18.70;55.00;;;;;;10503402;28;20037;-60
2020/12/29 19:59:56;;;;;;;8.00;4.68;;;18.70;55.10;;;;;;10502906;28;20571;-59
2020/12/29 20:04:57;;;;;;;5.47;4.25;;;18.80;56.00;;;;;;10503021;28;20043;-60
2020/12/29 20:09:59;;;;;;;6.72;4.13;;;18.80;56.40;;;;;;10502924;28;20028;-61
2020/12/29 20:14:59;;;;;;;7.40;3.60;;;18.90;56.70;;;;;;10502342;28;20073;-58
2020/12/29 20:20:04;;;;;;;9.95;4.60;;;18.90;57.20;;;;;;10502530;28;20104;-59
2020/12/29 20:25:05;;;;;;;8.65;3.55;;;18.80;57.40;;;;;;10502259;28;20025;-59
2020/12/29 20:30:06;;;;;;;8.02;4.00;;;18.70;57.80;;;;;;10500996;28;20017;-58
2020/12/29 20:35:06;;;;;;;9.52;3.63;;;18.60;58.10;;;;;;10500789;28;20024;-58
2020/12/29 20:40:07;;;;;;;8.75;3.75;;;18.60;58.50;;;;;;10501826;28;20081;-57
2020/12/29 20:45:08;;;;;;;5.32;3.25;;;18.50;58.80;;;;;;10492541;28;20407;-59
2020/12/29 20:50:09;;;;;;;9.00;3.75;;;18.30;59.20;;;;;;10495698;28;20426;-58
2020/12/29 20:55:09;;;;;;;5.18;3.70;;;18.20;59.60;;;;;;10491413;28;20090;-57
2020/12/29 21:00:11;;;;;;;6.90;3.80;;;18.10;59.90;;;;;;10500356;28;20078;-58
2020/12/29 21:05:12;;;;;;;4.75;2.78;;;18.00;60.20;;;;;;10498257;28;20020;-58
2020/12/29 21:10:12;;;;;;;9.05;4.00;;;18.00;60.50;;;;;;10472796;28;20040;-60
2020/12/29 21:15:13;;;;;;;9.23;4.25;;;17.80;61.70;;;;;;10467121;28;20139;-59
2020/12/29 21:20:14;;;;;;;7.07;3.72;;;17.70;61.00;;;;;;10467878;28;20052;-59
2020/12/29 21:25:14;;;;;;;9.55;4.10;;;17.60;61.20;;;;;;10494774;28;20039;-59
2020/12/29 21:30:15;;;;;;;7.38;3.33;;;17.60;61.50;;;;;;10499833;28;20536;-59
2020/12/29 21:35:16;;;;;;;6.70;3.55;;;17.50;61.70;;;;;;10499483;28;20099;-60
2020/12/29 21:40:17;;;;;;;5.10;3.30;;;17.40;61.80;;;;;;10499322;28;20507;-59
2020/12/29 21:45:18;;;;;;;8.30;3.95;;;17.30;61.90;;;;;;10499318;28;20055;-59
2020/12/29 21:50:19;;;;;;;5.60;3.47;;;17.30;62.10;;;;;;10499094;28;20485;-59
2020/12/29 21:55:19;;;;;;;6.38;3.90;;;17.20;62.20;;;;;;10498852;28;20081;-59
2020/12/29 22:00:20;;;;;;;7.10;3.65;;;17.10;62.30;;;;;;10498746;28;20028;-59
2020/12/29 22:05:21;;;;;;;5.70;3.60;;;17.10;62.60;;;;;;10497351;28;20030;-59
2020/12/29 22:10:22;;;;;;;6.78;3.83;;;17.00;62.60;;;;;;10496835;28;20158;-59
2020/12/29 22:15:22;;;;;;;7.18;3.90;;;16.90;62.60;;;;;;10497864;28;20137;-59
2020/12/29 22:20:23;;;;;;;5.90;3.58;;;16.90;62.80;;;;;;10497882;28;20381;-59
2020/12/29 22:25:24;;;;;;;6.93;3.50;;;16.80;62.80;;;;;;10497793;28;20111;-59
2020/12/29 22:30:25;;;;;;;5.40;3.47;;;16.80;62.90;;;;;;10497781;28;20048;-59
2020/12/29 22:35:26;;;;;;;4.82;3.50;;;16.80;63.00;;;;;;10497428;28;20458;-59
2020/12/29 22:40:26;;;;;;;6.18;3.70;;;16.70;63.10;;;;;;10497441;28;20074;-59
2020/12/29 22:45:27;;;;;;;6.55;3.70;;;16.70;63.30;;;;;;10497120;28;20055;-59
2020/12/29 22:50:28;;;;;;;7.32;4.40;;;16.60;63.20;;;;;;10497027;28;20461;-59
2020/12/29 22:55:29;;;;;;;5.38;3.65;;;16.60;63.30;;;;;;10496964;28;20108;-59
2020/12/29 23:00:29;;;;;;;6.10;3.78;;;16.60;63.40;;;;;;10496709;28;20094;-59
2020/12/29 23:05:31;;;;;;;6.10;4.10;;;16.50;63.30;;;;;;10496756;28;20059;-59
2020/12/29 23:10:33;;;;;;;5.47;4.20;;;16.50;63.40;;;;;;10496609;28;20036;-59
2020/12/29 23:15:34;;;;;;;6.70;3.47;;;16.40;63.50;;;;;;10500369;28;20037;-59
2020/12/29 23:20:35;;;;;;;5.72;4.05;;;16.40;63.60;;;;;;10505085;28;20512;-59
2020/12/29 23:25:35;;;;;;;5.07;3.55;;;16.30;63.60;;;;;;10504798;28;20071;-59
2020/12/29 23:30:36;;;;;;;5.55;4.38;;;16.30;63.60;;;;;;10503472;28;20039;-59
2020/12/29 23:35:37;;;;;;;5.43;3.83;;;16.30;63.80;;;;;;10504452;28;20044;-59
2020/12/29 23:40:38;;;;;;;4.60;3.38;;;16.20;63.80;;;;;;10504330;28;20032;-59
2020/12/29 23:45:39;;;;;;;6.40;4.38;;;16.20;63.90;;;;;;10504206;28;20029;-59
2020/12/29 23:50:40;;;;;;;6.60;3.72;;;16.20;63.90;;;;;;10503739;28;20033;-59
2020/12/29 23:55:41;;;;;;;6.50;3.67;;;16.20;63.90;;;;;;10503766;28;20078;-59
